CheckWX is a tool to help pilots better visualize weather data.  It is not intended as a substitute for an official pre-flight weather briefing.

20:31:46 UTC

KEGE TAF
Eagle County Regional Airport
Eagle, Colorado, USA
KEGE 221927Z 2219/2318 23013KT P6SM VCSH BKN060 OVC070 TEMPO 2220/2224 4SM -SHRASN BR BKN030 OVC040 FM230000 24007KT P6SM SCT035 BKN070 FM230200 VRB03KT P6SM SCT035 BKN070 FM231200 VRB03KT P6SM FEW035 SCT045 FM231500 VRB03KT P6SM SCT030 BKN050

Mar-22@
19:00 UTC

Mar-22 @ 19:00 UTC

Mar-23@
00:00 UTC

Mar-23 @ 00:00 UTC

KEGE 221927Z 2219/2318 23013KT P6SM VCSH BKN060 OVC070
Wind
  • 230° at 13 KTS
Cloud Levels
  • Broken at 6,000' AGL
  • Overcast at 7,000' AGL

Mar-22@
20:00 UTC

Mar-22 @ 20:00 UTC

Mar-23@
00:00 UTC

Mar-23 @ 00:00 UTC

TEMPO 2220/2224 4SM -SHRASN BR BKN030 OVC040

Temporary

Temporary Changes expected for less than half the time period

Conditions
Light Rain, Light Snow, Mist
Cloud Levels
  • Broken at 3,000' AGL
  • Overcast at 4,000' AGL

Mar-23@
00:00 UTC

Mar-23 @ 00:00 UTC

Mar-23@
02:00 UTC

Mar-23 @ 02:00 UTC

FM230000 24007KT P6SM SCT035 BKN070

From

From Standard forecast or significant change

Wind
  • 240° at 7 KTS
Cloud Levels
  • Scattered at 3,500' AGL
  • Broken at 7,000' AGL

Mar-23@
02:00 UTC

Mar-23 @ 02:00 UTC

Mar-23@
12:00 UTC

Mar-23 @ 12:00 UTC

FM230200 VRB03KT P6SM SCT035 BKN070

From

From Standard forecast or significant change

Wind
  • Variable at 3 KTS
Cloud Levels
  • Scattered at 3,500' AGL
  • Broken at 7,000' AGL

Mar-23@
12:00 UTC

Mar-23 @ 12:00 UTC

Mar-23@
15:00 UTC

Mar-23 @ 15:00 UTC

FM231200 VRB03KT P6SM FEW035 SCT045

From

From Standard forecast or significant change

Wind
  • Variable at 3 KTS
Cloud Levels
  • Few at 3,500' AGL
  • Scattered at 4,500' AGL

Mar-23@
15:00 UTC

Mar-23 @ 15:00 UTC

Mar-23@
18:00 UTC

Mar-23 @ 18:00 UTC

FM231500 VRB03KT P6SM SCT030 BKN050

From

From Standard forecast or significant change

Wind
  • Variable at 3 KTS
Cloud Levels
  • Scattered at 3,000' AGL
  • Broken at 5,000' AGL